Airfield :
LOGIN :

Register | Disclaimer

   EN    FR    IT 

 










Legend :    VFR   Marginal VFR   IFR   Intensive IFR   Very Intensive IFR
Visi :
Ceiling :
>= 8 km
>= 3000ft
5 to 8 km
1000 to 3000 ft
1500m to 5 km
500 to 1000 ft
800 to 1500m
200 to 500 ft
< 800m
< 200 ft
Symbols :   Thunderstorms  Fog  Heavy snow  Heavy precipitations  Wind > 20 kt
SIGMETs :     Misc.  Thunderstorms  Icing  Turbulence  Mountain Waves  Volcanic Ashes






- Airport Elevation : 56 ft
- IATA code : TRD


ENVA - Trondheim , Værnes

CURRENT METAR :
  • 220650Z 20009KT 9999 FEW020 09/06 Q1004 NOSIG RMK WIND 670FT 22013KT

EXPIRED METARs :
  • 220620Z 20009KT 9999 FEW025 SCT045 08/05 Q1004 NOSIG RMK WIND 670FT 23013KT
  • 220550Z 23012KT 9999 FEW025 SCT045 08/05 Q1004 NOSIG RMK WIND 670FT 24015KT
  • 220520Z 23012KT 9999 FEW012 BKN024 BKN060 08/05 Q1004 NOSIG RMK WIND 670FT 24016KT
  • 220450Z 24013KT 9999 FEW012 BKN024 BKN050 09/05 Q1004 REDZ NOSIG RMK WIND 670FT 25015KT
  • 220420Z 22014KT 9999 DZ FEW008 BKN027 BKN041 08/06 Q1003 RMK WIND 670FT 23015KT

TAF TAF ENVA
Valid from the 22 at 06:00 until the 23 at 06:00 UTC


2206/2306 27015KT 9000 -RA FEW012 BKN035
BECMG 2206/2208 VRB07KT
TEMPO 2214/2220 RADZ



MET'MAP, your aeronautical weather chart ! - Copyright ORBIFLY December 2007 - Disclaimer

ORBIFLY MET'MAP TEAM :

Programming & Development : Alexandra Zaïnal
Concept & original design : Baudouin d'Aumeries
Assistance for programming : Marc-Olivier Méhu
Technical & hardware support : Manuel Goepfert

Contact : metmap@orbifly.com




SOURCES & CREDITS :

   NOAA